Time;durP1;ratioP1;P1;durP2;ratioP2;P2;SDS_P1;SDS_P2;PMS_P1;PMS_P2;Temp;Humidity;BMP_temperature;BMP_pressure;BME280_temperature;BME280_humidity;BME280_pressure;Samples;Min_cycle;Max_cycle;Signal;HPM_P1;HPM_P2
2023/09/23 00:01:32;;;;;;;20.55;9.18;;;;;;;20.10;76.19;97516.94;10281669;28;20073;-51
2023/09/23 00:06:31;;;;;;;27.98;9.82;;;;;;;20.32;76.31;97558.16;10285493;28;20100;-51
2023/09/23 00:11:31;;;;;;;21.45;9.50;;;;;;;19.79;77.49;97507.72;10287769;28;20036;-51
2023/09/23 00:16:30;;;;;;;18.60;9.45;;;;;;;19.90;78.44;97569.59;10285045;28;20507;-53
2023/09/23 00:21:28;;;;;;;24.90;9.50;;;;;;;19.57;79.68;97559.53;10282741;28;20556;-51
2023/09/23 00:26:28;;;;;;;24.70;8.82;;;;;;;19.51;79.61;97546.56;10284565;28;20469;-51
2023/09/23 00:31:26;;;;;;;24.30;10.07;;;;;;;19.45;79.87;97551.19;10284591;28;20084;-51
2023/09/23 00:36:26;;;;;;;25.08;9.95;;;;;;;19.45;80.83;97560.84;10284856;28;20026;-50
2023/09/23 00:41:25;;;;;;;24.45;11.05;;;;;;;19.20;82.86;97561.78;10281122;28;20472;-51
2023/09/23 00:46:26;;;;;;;19.10;9.50;;;;;;;19.17;82.31;97556.66;10280462;28;20069;-51
2023/09/23 00:51:26;;;;;;;27.90;10.90;;;;;;;19.06;81.73;97543.06;10281907;28;20075;-51
2023/09/23 00:56:28;;;;;;;21.80;10.60;;;;;;;19.17;82.53;97569.81;10281212;28;20120;-51
2023/09/23 01:01:27;;;;;;;24.60;11.45;;;;;;;19.12;82.96;97570.94;10278821;28;20073;-51
2023/09/23 01:06:28;;;;;;;26.70;10.80;;;;;;;19.09;82.86;97560.50;10280146;28;20034;-51
2023/09/23 01:11:29;;;;;;;22.00;11.68;;;;;;;19.14;82.72;97567.31;10280789;28;20089;-51
2023/09/23 01:16:28;;;;;;;24.05;10.88;;;;;;;19.12;82.57;97576.19;10280439;28;20120;-51
2023/09/23 01:21:27;;;;;;;26.08;10.80;;;;;;;19.09;82.93;97568.38;10278295;28;20029;-51
2023/09/23 01:26:27;;;;;;;22.98;10.75;;;;;;;18.88;83.19;97547.28;10281822;28;20545;-51
2023/09/23 01:31:29;;;;;;;22.98;10.65;;;;;;;19.01;83.12;97560.81;10281895;28;20054;-51
2023/09/23 01:36:28;;;;;;;23.20;10.80;;;;;;;19.03;83.03;97561.59;10275658;28;20080;-51
2023/09/23 01:41:27;;;;;;;21.60;11.20;;;;;;;18.92;83.11;97551.47;10287550;28;20044;-51
2023/09/23 01:46:26;;;;;;;27.88;10.68;;;;;;;18.89;82.98;97556.88;10289385;28;20469;-51
2023/09/23 01:51:25;;;;;;;24.23;10.98;;;;;;;18.89;83.04;97562.13;10289018;28;20057;-53
2023/09/23 01:56:23;;;;;;;24.33;11.48;;;;;;;18.88;82.94;97557.78;10289289;28;20022;-50
2023/09/23 02:01:22;;;;;;;23.25;10.70;;;;;;;18.83;83.08;97543.97;10289052;28;20045;-52
2023/09/23 02:06:21;;;;;;;17.52;11.43;;;;;;;18.70;84.12;97558.47;10289193;28;20101;-52
2023/09/23 02:11:20;;;;;;;23.27;12.15;;;;;;;18.36;86.57;97552.63;10289266;28;20113;-52
2023/09/23 02:16:19;;;;;;;21.58;12.65;;;;;;;18.35;85.58;97539.56;10270879;28;20049;-53
2023/09/23 02:21:19;;;;;;;24.95;13.25;;;;;;;18.42;84.82;97551.56;10288152;28;20061;-49
2023/09/23 02:26:18;;;;;;;26.67;12.55;;;;;;;18.45;84.53;97558.47;10287601;28;20141;-52
2023/09/23 02:31:17;;;;;;;24.73;12.38;;;;;;;18.47;84.30;97556.63;10282621;28;20021;-54
2023/09/23 02:36:16;;;;;;;18.95;11.77;;;;;;;18.38;84.57;97563.06;10286474;28;20080;-50
2023/09/23 02:41:16;;;;;;;21.08;11.65;;;;;;;18.45;84.38;97564.56;10284151;28;20029;-52
2023/09/23 02:46:15;;;;;;;22.73;10.77;;;;;;;18.33;85.10;97575.53;10279591;28;20061;-52
2023/09/23 02:51:14;;;;;;;25.63;12.40;;;;;;;18.10;86.15;97585.03;10243362;28;20026;-52
2023/09/23 02:56:15;;;;;;;23.63;12.38;;;;;;;18.17;85.28;97578.69;10275757;28;20024;-52
2023/09/23 03:01:14;;;;;;;22.77;12.63;;;;;;;18.22;84.98;97578.50;10281657;28;20061;-51
2023/09/23 03:06:15;;;;;;;22.13;13.07;;;;;;;18.23;84.75;97584.66;10282352;28;20517;-52
2023/09/23 03:11:18;;;;;;;23.58;13.15;;;;;;;18.26;84.43;97571.41;10281294;28;20072;-52
2023/09/23 03:16:27;;;;;;;25.35;13.20;;;;;;;18.25;84.40;97577.56;10283379;28;20543;-52
2023/09/23 03:21:26;;;;;;;25.92;13.25;;;;;;;18.25;84.74;97577.56;10278352;28;20066;-51
2023/09/23 03:26:26;;;;;;;25.05;13.23;;;;;;;18.25;84.52;97577.56;10282527;28;20029;-51
2023/09/23 03:31:25;;;;;;;20.58;13.10;;;;;;;18.22;84.52;97572.41;10278135;28;20073;-52
2023/09/23 03:36:25;;;;;;;24.30;11.68;;;;;;;18.15;85.08;97572.63;10283921;28;20037;-51
2023/09/23 03:41:24;;;;;;;25.23;12.40;;;;;;;18.11;85.21;97568.38;10284607;28;20073;-52
2023/09/23 03:46:24;;;;;;;26.67;12.82;;;;;;;17.99;84.73;97542.56;10280082;28;20026;-52
2023/09/23 03:51:24;;;;;;;21.83;12.52;;;;;;;18.05;85.11;97576.47;10283849;28;20062;-51
2023/09/23 03:56:24;;;;;;;29.25;11.70;;;;;;;18.04;84.94;97580.00;10282158;28;20121;-52
2023/09/23 04:01:24;;;;;;;27.73;12.93;;;;;;;18.00;85.18;97567.03;10280696;28;20065;-51
2023/09/23 04:06:23;;;;;;;24.02;14.05;;;;;;;17.90;85.26;97559.47;10265718;28;20123;-52
2023/09/23 04:11:22;;;;;;;23.70;12.32;;;;;;;17.92;85.50;97576.03;10277211;28;20100;-52
2023/09/23 04:16:22;;;;;;;24.00;13.05;;;;;;;17.84;86.22;97579.81;10284678;28;21565;-52
2023/09/23 04:21:24;;;;;;;24.60;11.85;;;;;;;17.88;86.36;97578.81;10276119;28;20084;-52
2023/09/23 04:26:24;;;;;;;25.23;15.57;;;;;;;17.84;86.63;97591.16;10280786;28;20705;-51
2023/09/23 04:31:24;;;;;;;35.60;16.17;;;;;;;17.92;86.10;97597.03;10274801;28;20133;-52
2023/09/23 04:36:23;;;;;;;31.65;15.20;;;;;;;17.96;86.25;97598.66;10277727;28;20069;-52
2023/09/23 04:41:22;;;;;;;25.75;13.07;;;;;;;17.93;86.43;97616.25;10253119;28;20041;-52
2023/09/23 04:46:21;;;;;;;28.45;13.30;;;;;;;18.05;86.44;97623.72;10286276;28;20052;-52
2023/09/23 04:51:20;;;;;;;29.65;14.65;;;;;;;18.16;86.08;97621.59;10286347;28;20037;-52
2023/09/23 04:56:19;;;;;;;29.42;16.27;;;;;;;18.24;85.48;97607.34;10285431;28;20026;-52
2023/09/23 05:01:18;;;;;;;33.38;15.95;;;;;;;18.29;85.13;97589.66;10286271;28;20604;-50
2023/09/23 05:06:18;;;;;;;26.50;12.75;;;;;;;18.58;84.58;97618.41;10286229;28;20084;-52
2023/09/23 05:11:17;;;;;;;24.00;13.30;;;;;;;18.69;84.00;97619.81;10285456;28;20069;-52
2023/09/23 05:16:16;;;;;;;22.98;14.00;;;;;;;18.63;84.19;97625.28;10292882;28;20049;-51
2023/09/23 05:21:18;;;;;;;25.35;13.05;;;;;;;18.69;84.33;97640.84;10274386;28;20511;-52
2023/09/23 05:26:19;;;;;;;25.10;13.18;;;;;;;18.92;83.37;97638.25;10292768;28;20061;-51
2023/09/23 05:31:18;;;;;;;26.90;12.35;;;;;;;19.14;83.00;97648.84;10293373;28;20756;-52
2023/09/23 05:36:17;;;;;;;32.75;14.73;;;;;;;19.36;82.26;97641.00;10290846;28;20523;-51
2023/09/23 05:41:16;;;;;;;28.65;15.48;;;;;;;19.53;81.58;97647.38;10287063;28;20156;-52
2023/09/23 05:46:15;;;;;;;40.83;15.80;;;;;;;19.73;80.28;97651.91;10288505;28;20048;-52
2023/09/23 05:51:15;;;;;;;37.35;13.25;;;;;;;19.87;80.36;97650.44;10288251;28;20054;-51
2023/09/23 05:56:14;;;;;;;53.05;13.38;;;;;;;20.11;78.68;97646.88;10256925;28;20049;-52
2023/09/23 06:01:13;;;;;;;37.33;13.10;;;;;;;20.38;78.11;97647.53;10286337;28;20030;-52
2023/09/23 06:06:14;;;;;;;27.55;11.77;;;;;;;20.73;76.87;97650.44;10284726;28;20109;-52
2023/09/23 06:11:14;;;;;;;30.95;12.68;;;;;;;21.05;75.57;97668.31;10280069;28;20069;-52
2023/09/23 06:16:16;;;;;;;41.08;13.73;;;;;;;21.32;74.14;97653.06;10287261;28;20061;-52
2023/09/23 06:21:15;;;;;;;24.08;11.70;;;;;;;21.60;72.97;97667.63;10286604;28;20137;-53
2023/09/23 06:26:14;;;;;;;26.13;10.77;;;;;;;21.89;69.56;97660.94;10286508;28;20120;-52
2023/09/23 06:31:13;;;;;;;20.30;9.52;;;;;;;22.15;68.03;97659.72;10270050;28;20038;-52
2023/09/23 06:36:12;;;;;;;22.90;10.15;;;;;;;22.32;64.82;97652.72;10287705;28;20473;-53
2023/09/23 06:41:11;;;;;;;23.65;9.55;;;;;;;22.50;64.47;97669.47;10286031;28;20498;-52
2023/09/23 06:46:12;;;;;;;21.27;9.88;;;;;;;22.69;63.97;97658.78;10285686;28;20412;-53
2023/09/23 06:51:11;;;;;;;20.70;8.05;;;;;;;22.90;62.99;97659.50;10268398;28;20065;-52
2023/09/23 06:56:09;;;;;;;23.23;8.05;;;;;;;23.17;60.90;97668.63;10276040;28;20140;-53
2023/09/23 07:01:08;;;;;;;22.77;8.05;;;;;;;23.46;59.38;97668.00;10246764;28;20045;-54
2023/09/23 07:06:07;;;;;;;24.55;8.25;;;;;;;23.77;58.66;97668.06;10285352;28;20044;-52
2023/09/23 07:11:13;;;;;;;24.25;8.25;;;;;;;24.10;57.27;97659.16;10285232;28;20401;-53
2023/09/23 07:16:16;;;;;;;22.60;8.23;;;;;;;24.32;55.08;97653.47;10284459;28;20076;-53
2023/09/23 07:21:15;;;;;;;20.42;9.10;;;;;;;24.54;54.06;97663.66;10284740;28;20061;-52
2023/09/23 07:26:21;;;;;;;24.50;7.57;;;;;;;24.89;52.62;97676.66;10285864;28;20044;-53
2023/09/23 07:31:20;;;;;;;23.55;7.65;;;;;;;25.24;51.94;97678.97;10283944;28;20056;-52
2023/09/23 07:36:19;;;;;;;26.17;7.60;;;;;;;25.46;51.64;97679.34;10285484;28;20034;-53
2023/09/23 07:41:18;;;;;;;22.17;7.50;;;;;;;25.76;50.68;97677.53;10287630;28;20048;-53
2023/09/23 07:46:17;;;;;;;18.65;7.28;;;;;;;26.08;50.61;97664.81;10287916;28;20108;-54
2023/09/23 07:51:16;;;;;;;22.02;6.43;;;;;;;26.38;49.90;97667.28;10288097;28;20465;-54
2023/09/23 07:56:15;;;;;;;23.77;7.90;;;;;;;26.61;48.53;97654.25;10286921;28;20496;-53
2023/09/23 08:01:14;;;;;;;16.85;6.15;;;;;;;26.91;48.45;97660.16;10287857;28;20538;-53
2023/09/23 08:06:13;;;;;;;16.13;6.43;;;;;;;27.09;47.20;97652.69;10287610;28;20440;-54
2023/09/23 08:11:12;;;;;;;15.27;6.85;;;;;;;27.35;45.97;97656.22;10287603;28;20052;-54
2023/09/23 08:16:11;;;;;;;20.02;6.70;;;;;;;27.67;44.69;97647.72;10284636;28;20073;-54
2023/09/23 08:21:11;;;;;;;19.42;7.28;;;;;;;28.01;43.96;97650.63;10286972;28;20021;-54
2023/09/23 08:26:10;;;;;;;25.42;7.57;;;;;;;28.37;41.77;97640.84;10286898;28;20069;-54
2023/09/23 08:31:09;;;;;;;20.20;6.55;;;;;;;28.58;40.83;97647.22;10285826;28;20065;-54
2023/09/23 08:36:08;;;;;;;19.73;6.30;;;;;;;28.85;40.06;97646.09;10283714;28;20112;-55
2023/09/23 08:41:07;;;;;;;19.77;6.75;;;;;;;29.20;38.82;97639.81;10282639;28;20076;-52
2023/09/23 08:46:09;;;;;;;19.55;6.25;;;;;;;29.36;39.37;97596.72;10282222;28;20037;-52
2023/09/23 08:51:08;;;;;;;19.75;6.30;;;;;;;29.84;38.62;97626.72;10282273;28;20129;-55
2023/09/23 08:56:08;;;;;;;23.45;6.57;;;;;;;30.03;35.80;97623.38;10283623;28;20125;-55
2023/09/23 09:01:07;;;;;;;18.45;5.43;;;;;;;30.32;34.00;97617.41;10281820;28;20136;-55
2023/09/23 09:06:19;;;;;;;20.05;5.15;;;;;;;30.37;34.05;97568.81;10282805;28;20437;-53
2023/09/23 09:11:22;;;;;;;22.35;5.72;;;;;;;30.57;32.90;97599.31;10282859;28;20084;-53
2023/09/23 09:16:21;;;;;;;20.83;6.15;;;;;;;31.03;32.59;97612.31;10280797;28;20053;-53
2023/09/23 09:21:20;;;;;;;20.67;5.45;;;;;;;31.32;32.73;97590.13;10281837;28;20392;-53
2023/09/23 09:26:21;;;;;;;22.85;6.30;;;;;;;31.55;30.70;97602.34;10282976;28;20061;-53
2023/09/23 09:31:22;;;;;;;15.80;5.00;;;;;;;31.73;31.47;97605.22;10281439;28;20075;-53
2023/09/23 09:36:23;;;;;;;28.98;6.70;;;;;;;31.72;30.34;97586.59;10281781;28;20588;-55
2023/09/23 09:41:30;;;;;;;26.05;6.30;;;;;;;31.99;29.91;97597.50;10282470;28;20109;-55
2023/09/23 09:46:30;;;;;;;19.97;5.40;;;;;;;32.06;29.69;97586.22;10282080;28;20072;-53
2023/09/23 09:51:30;;;;;;;17.42;5.22;;;;;;;32.16;29.46;97584.41;10281939;28;20066;-55
2023/09/23 09:56:32;;;;;;;30.15;5.90;;;;;;;32.21;28.84;97571.38;10282335;28;20962;-55
2023/09/23 10:01:33;;;;;;;22.27;5.35;;;;;;;32.34;28.90;97580.00;10285840;28;20141;-55
2023/09/23 10:06:39;;;;;;;23.75;5.63;;;;;;;32.52;28.98;97580.09;10288742;28;20447;-55
2023/09/23 10:11:39;;;;;;;23.65;5.97;;;;;;;32.58;28.11;97568.81;10288013;28;20064;-55
2023/09/23 10:16:38;;;;;;;24.63;6.35;;;;;;;32.69;28.07;97559.72;10287861;28;20465;-55
2023/09/23 10:21:37;;;;;;;27.60;6.30;;;;;;;32.84;27.85;97552.06;10288894;28;20428;-55
2023/09/23 10:26:39;;;;;;;24.05;5.63;;;;;;;32.96;27.24;97550.88;10287915;28;20126;-52
2023/09/23 10:31:38;;;;;;;28.13;6.90;;;;;;;33.08;25.75;97540.78;10288200;28;20041;-55
2023/09/23 10:36:37;;;;;;;29.20;5.80;;;;;;;33.21;26.55;97538.63;10284131;28;20036;-55
2023/09/23 10:41:37;;;;;;;23.83;6.43;;;;;;;33.30;26.06;97533.34;10287816;28;20053;-55
2023/09/23 10:46:36;;;;;;;24.15;5.70;;;;;;;33.44;26.47;97531.00;10287607;28;20064;-55
2023/09/23 10:51:35;;;;;;;33.85;6.88;;;;;;;32.73;25.91;97404.44;10286544;28;20476;-55
2023/09/23 10:56:34;;;;;;;21.20;6.15;;;;;;;33.46;24.79;97520.06;10284255;28;20468;-55
2023/09/23 11:01:33;;;;;;;23.15;5.45;;;;;;;33.49;25.23;97487.50;10285394;28;20129;-55
2023/09/23 11:06:33;;;;;;;28.42;6.28;;;;;;;33.66;24.52;97494.78;10286867;28;20072;-55
2023/09/23 11:11:36;;;;;;;28.20;5.88;;;;;;;33.86;24.31;97499.97;10283187;28;20058;-55
2023/09/23 11:16:35;;;;;;;24.13;5.70;;;;;;;33.93;22.19;97494.81;10266527;28;20117;-55
2023/09/23 11:21:46;;;;;;;26.92;6.28;;;;;;;34.01;21.71;97479.59;10291533;28;20014;-55
2023/09/23 11:26:45;;;;;;;27.08;6.03;;;;;;;34.20;22.23;97470.50;10293149;28;20120;-55
2023/09/23 11:31:44;;;;;;;25.75;7.03;;;;;;;34.21;22.64;97466.81;10282880;28;20121;-55
2023/09/23 11:36:43;;;;;;;26.73;6.50;;;;;;;34.37;23.14;97459.84;10280110;28;20025;-55
2023/09/23 11:41:42;;;;;;;32.22;6.30;;;;;;;34.35;22.01;97460.00;10280106;28;20130;-55
2023/09/23 11:46:41;;;;;;;28.60;7.07;;;;;;;34.42;21.55;97452.13;10281210;28;20033;-55
2023/09/23 11:51:41;;;;;;;26.23;5.97;;;;;;;34.43;22.28;97433.13;10288445;28;20649;-55
2023/09/23 11:56:40;;;;;;;25.65;5.40;;;;;;;34.70;21.99;97447.41;10281119;28;20069;-55
2023/09/23 12:01:39;;;;;;;30.85;6.18;;;;;;;34.83;22.03;97436.19;10280127;28;20128;-55
2023/09/23 12:06:38;;;;;;;26.55;6.57;;;;;;;34.89;22.57;97433.69;10256379;28;20117;-55
2023/09/23 12:11:38;;;;;;;24.10;6.72;;;;;;;34.85;21.40;97431.50;10263487;28;20018;-55
2023/09/23 12:16:36;;;;;;;26.77;6.07;;;;;;;34.96;21.09;97411.47;10263573;28;20200;-55
2023/09/23 12:21:35;;;;;;;27.77;6.97;;;;;;;34.92;21.27;97422.59;10281665;28;20030;-55
2023/09/23 12:26:35;;;;;;;27.10;6.55;;;;;;;34.85;20.74;97418.84;10279347;28;20134;-55
2023/09/23 12:31:34;;;;;;;21.73;6.05;;;;;;;34.89;21.04;97414.84;10280612;28;20113;-55
2023/09/23 12:36:33;;;;;;;25.42;6.38;;;;;;;35.12;22.05;97416.94;10278974;28;20040;-55
2023/09/23 12:41:32;;;;;;;22.67;5.40;;;;;;;35.19;20.92;97412.56;10279078;28;20026;-55
2023/09/23 12:46:31;;;;;;;22.17;5.88;;;;;;;35.23;20.86;97408.53;10276797;28;20061;-56
2023/09/23 12:51:30;;;;;;;25.63;6.30;;;;;;;35.33;21.23;97403.81;10270958;28;20030;-55
2023/09/23 12:56:29;;;;;;;23.85;6.05;;;;;;;35.19;20.13;97374.81;10272016;28;20070;-55
2023/09/23 13:01:31;;;;;;;26.92;5.68;;;;;;;35.42;19.89;97380.41;10271239;28;20073;-55
2023/09/23 13:06:30;;;;;;;31.15;6.68;;;;;;;35.23;21.91;97349.19;10273734;28;20582;-54
2023/09/23 13:11:29;;;;;;;23.50;5.68;;;;;;;35.29;21.49;97370.13;10264910;28;20104;-55
2023/09/23 13:16:28;;;;;;;24.30;6.43;;;;;;;35.38;21.36;97372.81;10267344;28;20064;-55
2023/09/23 13:21:27;;;;;;;27.20;5.50;;;;;;;35.50;21.54;97368.75;10280768;28;20030;-55
2023/09/23 13:26:26;;;;;;;20.75;5.63;;;;;;;35.61;20.40;97367.63;10277736;28;20029;-55
2023/09/23 13:31:25;;;;;;;24.20;6.45;;;;;;;35.69;20.54;97373.00;10279678;28;20046;-55
2023/09/23 13:36:24;;;;;;;30.45;6.85;;;;;;;35.54;20.73;97362.00;10278262;28;20080;-55
2023/09/23 13:41:23;;;;;;;26.60;6.82;;;;;;;35.49;20.48;97361.69;10284710;28;20052;-55
2023/09/23 13:46:22;;;;;;;25.45;6.47;;;;;;;35.41;20.09;97358.97;10284572;28;20040;-55
2023/09/23 13:51:21;;;;;;;23.92;5.68;;;;;;;35.43;19.87;97354.25;10284198;28;20029;-55
2023/09/23 13:56:20;;;;;;;26.65;5.57;;;;;;;35.43;19.24;97348.84;10285436;28;20180;-55
2023/09/23 14:01:19;;;;;;;37.45;6.50;;;;;;;35.40;18.79;97343.81;10278637;28;20026;-55
2023/09/23 14:06:18;;;;;;;22.40;6.68;;;;;;;35.46;18.41;97337.75;10277519;28;20139;-55
2023/09/23 14:11:18;;;;;;;31.30;6.85;;;;;;;35.52;19.82;97350.53;10266158;28;20072;-55
2023/09/23 14:16:17;;;;;;;32.28;6.80;;;;;;;35.52;19.97;97345.97;10270297;28;20049;-54
2023/09/23 14:21:16;;;;;;;25.17;6.38;;;;;;;35.44;20.08;97346.00;10271260;28;20117;-55
2023/09/23 14:26:15;;;;;;;21.85;6.05;;;;;;;35.44;20.01;97339.75;10270334;28;20126;-55
2023/09/23 14:31:14;;;;;;;25.25;6.47;;;;;;;35.34;19.93;97340.78;10283987;28;20556;-55
2023/09/23 14:36:13;;;;;;;26.83;6.30;;;;;;;35.24;19.76;97334.69;10276087;28;21348;-55
2023/09/23 14:41:11;;;;;;;32.65;7.22;;;;;;;34.98;19.12;97340.19;10283113;28;20026;-55
2023/09/23 14:46:10;;;;;;;29.88;7.90;;;;;;;34.95;19.31;97328.91;10278531;28;20035;-55
2023/09/23 14:51:09;;;;;;;36.97;7.88;;;;;;;34.99;21.26;97319.44;10279054;28;20030;-55
2023/09/23 14:56:08;;;;;;;23.40;7.15;;;;;;;34.83;24.21;97331.91;10269440;28;20054;-55
2023/09/23 15:01:08;;;;;;;23.85;6.75;;;;;;;34.48;26.74;97323.00;10281906;28;20408;-55
2023/09/23 15:06:07;;;;;;;36.35;8.32;;;;;;;34.17;27.87;97340.69;10278950;28;20830;-54
2023/09/23 15:11:06;;;;;;;32.60;9.77;;;;;;;33.79;27.93;97342.81;10282876;28;20724;-55
2023/09/23 15:16:05;;;;;;;32.78;9.73;;;;;;;33.38;28.27;97342.47;10264976;28;20390;-55
2023/09/23 15:21:05;;;;;;;32.97;9.43;;;;;;;32.90;28.70;97349.03;10275143;28;20117;-55
2023/09/23 15:26:04;;;;;;;33.75;9.20;;;;;;;32.26;29.68;97300.59;10280684;28;20591;-55
2023/09/23 15:31:03;;;;;;;37.03;8.88;;;;;;;32.18;29.96;97346.16;10271496;28;20487;-55
2023/09/23 15:36:02;;;;;;;31.25;8.18;;;;;;;31.78;30.72;97341.88;10278656;28;20426;-54
2023/09/23 15:41:01;;;;;;;35.50;8.00;;;;;;;31.34;31.28;97352.22;10280213;28;20053;-54
2023/09/23 15:46:00;;;;;;;36.63;7.80;;;;;;;30.83;31.58;97346.06;10272792;28;20479;-54
2023/09/23 15:51:10;;;;;;;28.73;7.22;;;;;;;30.39;32.67;97360.72;10268727;28;20056;-54
2023/09/23 15:56:09;;;;;;;35.45;7.85;;;;;;;29.93;33.00;97354.91;10284593;28;20489;-54
2023/09/23 16:01:08;;;;;;;29.50;8.30;;;;;;;29.52;33.29;97361.06;10281018;28;20073;-55
2023/09/23 16:06:07;;;;;;;38.67;8.80;;;;;;;29.22;33.74;97347.44;10282892;28;20030;-54
2023/09/23 16:11:06;;;;;;;35.47;9.85;;;;;;;28.98;34.33;97354.84;10282602;28;20061;-54
2023/09/23 16:16:05;;;;;;;31.20;7.65;;;;;;;28.73;35.57;97347.97;10283147;28;20033;-54
2023/09/23 16:21:04;;;;;;;32.70;7.60;;;;;;;28.52;35.51;97350.53;10265886;28;20390;-54
2023/09/23 16:26:03;;;;;;;34.35;8.52;;;;;;;28.34;35.97;97363.56;10282945;28;20034;-53
2023/09/23 16:31:03;;;;;;;33.95;7.22;;;;;;;28.19;36.28;97354.94;10279084;28;20537;-54
2023/09/23 16:36:02;;;;;;;32.15;11.70;;;;;;;28.07;37.11;97367.41;10278414;28;20121;-53
2023/09/23 16:41:02;;;;;;;30.35;8.75;;;;;;;27.82;37.85;97368.44;10278130;28;20131;-54
2023/09/23 16:46:01;;;;;;;32.90;9.50;;;;;;;27.72;37.75;97367.47;10279171;28;20148;-54
2023/09/23 16:50:59;;;;;;;29.83;8.57;;;;;;;27.55;38.12;97369.59;10278744;28;20129;-54
2023/09/23 16:55:59;;;;;;;32.75;8.82;;;;;;;27.34;39.79;97379.19;10278464;28;20036;-54
2023/09/23 17:00:58;;;;;;;29.55;8.80;;;;;;;27.13;40.47;97379.81;10278402;28;20069;-53
2023/09/23 17:05:57;;;;;;;44.10;12.15;;;;;;;26.92;40.88;97384.94;10277428;28;20464;-54
2023/09/23 17:10:56;;;;;;;43.22;22.17;;;;;;;26.82;40.70;97386.53;10283604;28;20117;-53
2023/09/23 17:15:55;;;;;;;26.67;10.50;;;;;;;26.68;41.05;97400.00;10287125;28;20109;-53
2023/09/23 17:20:54;;;;;;;34.97;9.48;;;;;;;26.56;41.08;97402.59;10285976;28;20033;-53
2023/09/23 17:25:53;;;;;;;26.60;8.43;;;;;;;26.58;41.21;97395.34;10286386;28;20524;-53
2023/09/23 17:30:52;;;;;;;25.92;8.23;;;;;;;26.56;41.88;97407.91;10285560;28;20472;-53
2023/09/23 17:35:58;;;;;;;32.17;8.85;;;;;;;25.85;41.96;97340.19;10267548;28;20544;-53
2023/09/23 17:40:57;;;;;;;40.78;10.48;;;;;;;26.08;42.86;97426.31;10285571;28;20072;-53
2023/09/23 17:45:56;;;;;;;28.30;8.63;;;;;;;25.80;43.03;97416.72;10285905;28;20034;-52
2023/09/23 17:50:56;;;;;;;34.35;11.88;;;;;;;25.53;43.70;97419.44;10284332;28;20099;-53
2023/09/23 17:55:55;;;;;;;40.33;15.35;;;;;;;25.48;43.49;97419.75;10285128;28;20505;-52
2023/09/23 18:00:55;;;;;;;36.83;8.52;;;;;;;25.09;45.62;97425.88;10283750;28;20882;-52
2023/09/23 18:05:54;;;;;;;27.55;8.32;;;;;;;25.01;46.63;97442.31;10282717;28;20136;-53
2023/09/23 18:10:53;;;;;;;32.58;9.05;;;;;;;24.67;47.43;97447.06;10284741;28;20036;-54
2023/09/23 18:15:52;;;;;;;38.58;10.90;;;;;;;24.54;47.84;97439.97;10284151;28;20069;-54
2023/09/23 18:20:51;;;;;;;37.83;10.80;;;;;;;24.32;48.31;97440.47;10284777;28;20463;-54
2023/09/23 18:25:50;;;;;;;45.25;13.27;;;;;;;24.25;48.19;97434.69;10283834;28;20026;-54
2023/09/23 18:30:49;;;;;;;32.78;8.98;;;;;;;24.20;49.34;97436.78;10283880;28;20136;-54
2023/09/23 18:35:48;;;;;;;34.33;10.40;;;;;;;24.05;50.25;97441.16;10283610;28;20033;-53
2023/09/23 18:40:47;;;;;;;34.60;11.75;;;;;;;23.82;50.50;97439.91;10283682;28;20609;-52
2023/09/23 18:45:46;;;;;;;31.77;10.18;;;;;;;23.80;50.31;97433.84;10283524;28;20140;-53
2023/09/23 18:50:47;;;;;;;32.75;9.48;;;;;;;23.78;50.54;97435.75;10282526;28;20049;-53
2023/09/23 18:55:46;;;;;;;27.48;9.82;;;;;;;23.55;50.53;97408.81;10282774;28;20080;-53
2023/09/23 19:00:46;;;;;;;30.08;9.82;;;;;;;23.52;50.86;97432.00;10281755;28;20169;-54
2023/09/23 19:05:45;;;;;;;35.10;9.30;;;;;;;23.27;51.45;97400.75;10280628;28;20133;-53
2023/09/23 19:10:46;;;;;;;31.13;9.52;;;;;;;23.34;51.57;97428.56;10282047;28;20062;-52
2023/09/23 19:15:47;;;;;;;33.30;7.75;;;;;;;23.02;52.19;97405.66;10281552;28;20053;-53
2023/09/23 19:20:46;;;;;;;27.27;8.18;;;;;;;23.20;53.56;97466.41;10280020;28;20125;-53
2023/09/23 19:25:52;;;;;;;30.77;7.80;;;;;;;22.97;54.21;97465.06;10281263;28;20042;-53
2023/09/23 19:30:55;;;;;;;30.20;9.63;;;;;;;22.89;54.23;97483.16;10279812;28;20072;-52
2023/09/23 19:35:54;;;;;;;31.08;8.27;;;;;;;22.65;54.80;97459.75;10280200;28;20128;-53
2023/09/23 19:40:53;;;;;;;31.17;8.02;;;;;;;22.77;54.73;97468.81;10280994;28;20109;-52
2023/09/23 19:45:55;;;;;;;39.08;9.07;;;;;;;22.80;54.42;97444.84;10280398;28;20034;-52
2023/09/23 19:50:54;;;;;;;26.35;8.68;;;;;;;22.95;54.65;97444.00;10280295;28;20113;-52
2023/09/23 19:55:53;;;;;;;31.08;8.60;;;;;;;22.88;55.15;97449.69;10280887;28;20076;-52
2023/09/23 20:00:53;;;;;;;34.05;9.55;;;;;;;22.99;54.96;97447.31;10279796;28;20036;-53
2023/09/23 20:05:52;;;;;;;23.52;7.80;;;;;;;22.76;55.32;97446.81;10279412;28;20152;-53
2023/09/23 20:10:51;;;;;;;28.15;7.55;;;;;;;22.74;55.07;97432.81;10279201;28;20042;-53
2023/09/23 20:15:50;;;;;;;26.67;7.05;;;;;;;22.70;55.65;97420.66;10279379;28;20053;-53
2023/09/23 20:20:49;;;;;;;22.60;7.28;;;;;;;22.68;55.92;97411.09;10279266;28;20030;-53
2023/09/23 20:25:48;;;;;;;27.92;7.70;;;;;;;22.72;56.12;97415.28;10280487;28;20116;-53
2023/09/23 20:30:50;;;;;;;29.05;8.18;;;;;;;22.59;57.19;97415.09;10277414;28;20133;-53
2023/09/23 20:35:49;;;;;;;24.88;7.47;;;;;;;22.53;57.58;97411.03;10279504;28;20436;-53
2023/09/23 20:40:48;;;;;;;30.88;8.95;;;;;;;22.40;57.88;97407.31;10263653;28;20129;-53
2023/09/23 20:45:47;;;;;;;26.25;7.00;;;;;;;22.38;57.04;97393.34;10283661;28;20072;-53
2023/09/23 20:50:47;;;;;;;23.75;6.88;;;;;;;22.30;56.01;97364.69;10283685;28;20118;-53
2023/09/23 20:55:46;;;;;;;20.20;7.60;;;;;;;22.54;56.35;97382.78;10282563;28;20076;-53
2023/09/23 21:00:45;;;;;;;26.50;7.82;;;;;;;22.43;56.85;97379.88;10282417;28;20066;-52
2023/09/23 21:05:45;;;;;;;27.42;7.55;;;;;;;22.02;57.91;97343.34;10264199;28;20041;-53
2023/09/23 21:10:44;;;;;;;27.10;7.43;;;;;;;21.82;58.77;97379.53;10282818;28;20053;-52
2023/09/23 21:15:43;;;;;;;30.42;8.35;;;;;;;21.82;59.36;97397.19;10282854;28;20036;-52
2023/09/23 21:20:42;;;;;;;28.08;8.27;;;;;;;21.73;59.65;97385.28;10281189;28;20505;-52
2023/09/23 21:25:41;;;;;;;27.77;8.13;;;;;;;21.68;59.03;97382.03;10282404;28;20493;-51
2023/09/23 21:30:40;;;;;;;26.25;8.18;;;;;;;21.44;59.18;97355.13;10282340;28;20029;-52
2023/09/23 21:35:43;;;;;;;28.80;9.90;;;;;;;21.28;59.59;97336.56;10281887;28;20315;-52
2023/09/23 21:40:42;;;;;;;24.30;8.02;;;;;;;21.55;59.59;97377.41;10277445;28;20121;-53
2023/09/23 21:45:42;;;;;;;25.35;7.05;;;;;;;21.49;59.68;97374.22;10278139;28;20185;-52
2023/09/23 21:50:41;;;;;;;27.33;8.35;;;;;;;21.38;60.41;97369.47;10278427;28;20426;-53
2023/09/23 21:55:40;;;;;;;26.83;8.60;;;;;;;21.33;60.90;97368.84;10281359;28;20113;-52
2023/09/23 22:00:39;;;;;;;21.30;7.75;;;;;;;21.21;61.44;97358.94;10285761;28;20471;-50
2023/09/23 22:05:38;;;;;;;29.02;8.30;;;;;;;21.21;61.54;97357.13;10282660;28;20046;-52
2023/09/23 22:10:43;;;;;;;24.20;7.80;;;;;;;21.00;61.44;97310.69;10282593;28;20087;-51
2023/09/23 22:15:42;;;;;;;23.20;7.75;;;;;;;21.16;61.47;97332.75;10284246;28;20148;-52
2023/09/23 22:20:42;;;;;;;27.88;8.85;;;;;;;21.08;62.12;97327.84;10284195;28;20038;-51
2023/09/23 22:25:42;;;;;;;24.65;7.78;;;;;;;21.01;62.63;97323.81;10285112;28;20124;-51
2023/09/23 22:30:41;;;;;;;24.38;8.00;;;;;;;20.96;62.91;97317.94;10284972;28;20077;-52
2023/09/23 22:35:40;;;;;;;26.42;7.97;;;;;;;20.90;63.20;97326.97;10284169;28;20037;-49
2023/09/23 22:40:40;;;;;;;27.90;8.18;;;;;;;20.81;63.73;97322.16;10284004;28;20066;-51
2023/09/23 22:45:39;;;;;;;31.60;9.68;;;;;;;20.77;63.79;97311.84;10282753;28;20070;-52
2023/09/23 22:50:39;;;;;;;23.38;7.50;;;;;;;20.62;64.13;97290.56;10283976;28;20026;-51